Frederikshaab, Greenland
Current Conditions -  °F | °C
As of 5:50 PM on Tuesday 21 Oct 2014 (Local Time) from BGBW Reporting Station
Broken Clouds Broken Clouds  
Wind Chill: 37°   Ceiling: 9000
Heat Index: 45°   Visibility: 6mi
Dew Point: 19°   Wind: 20mph
Humidity: 37%   Direction: 80°E
Pressure: 29.23"   Gusts: NA
Location:  61.99°N, 49.66°W
Report Text: BGBW 211950Z 08017KT 9999 FEW075 BKN090 07/M07 Q0990
Loading
Personal Weather Stations






























Interactive Weather Map
Tropical Storm Tracking
New forecast layout! Learn more

10-Day Weather Forecast

Advertisements
Track Severe Weather on mobile